sensor_id;sensor_type;location;lat;lon;timestamp;P1;durP1;ratioP1;P2;durP2;ratioP2
9739;SDS011;4909;42.680;26.324;2023-07-31T00:01:41;0.83;;;0.67;;
9739;SDS011;4909;42.680;26.324;2023-07-31T00:04:09;0.63;;;0.60;;
9739;SDS011;4909;42.680;26.324;2023-07-31T00:06:36;0.60;;;0.60;;
9739;SDS011;4909;42.680;26.324;2023-07-31T00:09:03;0.77;;;0.77;;
9739;SDS011;4909;42.680;26.324;2023-07-31T00:11:30;1.37;;;0.97;;
9739;SDS011;4909;42.680;26.324;2023-07-31T00:13:56;1.40;;;1.00;;
9739;SDS011;4909;42.680;26.324;2023-07-31T00:16:24;0.97;;;0.73;;
9739;SDS011;4909;42.680;26.324;2023-07-31T00:18:50;0.60;;;0.60;;
9739;SDS011;4909;42.680;26.324;2023-07-31T00:21:18;1.00;;;0.73;;
9739;SDS011;4909;42.680;26.324;2023-07-31T00:23:45;1.07;;;0.83;;
9739;SDS011;4909;42.680;26.324;2023-07-31T00:26:12;0.97;;;0.80;;
9739;SDS011;4909;42.680;26.324;2023-07-31T00:28:39;0.50;;;0.50;;
9739;SDS011;4909;42.680;26.324;2023-07-31T00:31:05;0.93;;;0.63;;
9739;SDS011;4909;42.680;26.324;2023-07-31T00:33:34;0.83;;;0.70;;
9739;SDS011;4909;42.680;26.324;2023-07-31T00:36:01;0.67;;;0.60;;
9739;SDS011;4909;42.680;26.324;2023-07-31T00:38:29;0.70;;;0.60;;
9739;SDS011;4909;42.680;26.324;2023-07-31T00:40:56;0.87;;;0.63;;
9739;SDS011;4909;42.680;26.324;2023-07-31T00:43:23;0.73;;;0.53;;
9739;SDS011;4909;42.680;26.324;2023-07-31T00:45:50;0.73;;;0.63;;
9739;SDS011;4909;42.680;26.324;2023-07-31T00:48:17;0.63;;;0.60;;
9739;SDS011;4909;42.680;26.324;2023-07-31T00:50:44;0.77;;;0.67;;
9739;SDS011;4909;42.680;26.324;2023-07-31T00:53:11;0.77;;;0.53;;
9739;SDS011;4909;42.680;26.324;2023-07-31T00:55:39;0.83;;;0.63;;
9739;SDS011;4909;42.680;26.324;2023-07-31T00:58:06;0.60;;;0.60;;
9739;SDS011;4909;42.680;26.324;2023-07-31T01:00:33;1.53;;;1.03;;
9739;SDS011;4909;42.680;26.324;2023-07-31T01:03:00;0.50;;;0.50;;
9739;SDS011;4909;42.680;26.324;2023-07-31T01:05:29;0.90;;;0.73;;
9739;SDS011;4909;42.680;26.324;2023-07-31T01:08:03;0.97;;;0.73;;
9739;SDS011;4909;42.680;26.324;2023-07-31T01:10:37;0.77;;;0.70;;
9739;SDS011;4909;42.680;26.324;2023-07-31T01:13:12;0.93;;;0.77;;
9739;SDS011;4909;42.680;26.324;2023-07-31T01:15:39;1.17;;;0.80;;
9739;SDS011;4909;42.680;26.324;2023-07-31T01:18:05;0.77;;;0.70;;
9739;SDS011;4909;42.680;26.324;2023-07-31T01:20:32;0.70;;;0.67;;
9739;SDS011;4909;42.680;26.324;2023-07-31T01:23:08;1.03;;;0.70;;
9739;SDS011;4909;42.680;26.324;2023-07-31T01:25:56;1.13;;;0.80;;
9739;SDS011;4909;42.680;26.324;2023-07-31T01:28:30;1.00;;;0.80;;
9739;SDS011;4909;42.680;26.324;2023-07-31T01:31:04;1.20;;;0.80;;
9739;SDS011;4909;42.680;26.324;2023-07-31T01:33:37;1.10;;;0.87;;
9739;SDS011;4909;42.680;26.324;2023-07-31T01:36:04;0.53;;;0.53;;
9739;SDS011;4909;42.680;26.324;2023-07-31T01:38:32;0.50;;;0.50;;
9739;SDS011;4909;42.680;26.324;2023-07-31T01:41:00;0.60;;;0.60;;
9739;SDS011;4909;42.680;26.324;2023-07-31T01:43:26;0.87;;;0.80;;
9739;SDS011;4909;42.680;26.324;2023-07-31T01:45:53;0.73;;;0.60;;
9739;SDS011;4909;42.680;26.324;2023-07-31T01:48:20;0.53;;;0.53;;
9739;SDS011;4909;42.680;26.324;2023-07-31T01:50:47;0.67;;;0.63;;
9739;SDS011;4909;42.680;26.324;2023-07-31T01:53:14;1.10;;;0.80;;
9739;SDS011;4909;42.680;26.324;2023-07-31T01:55:41;1.07;;;0.87;;
9739;SDS011;4909;42.680;26.324;2023-07-31T01:58:09;0.90;;;0.70;;
9739;SDS011;4909;42.680;26.324;2023-07-31T02:00:36;1.03;;;0.83;;
9739;SDS011;4909;42.680;26.324;2023-07-31T02:03:02;0.67;;;0.63;;
9739;SDS011;4909;42.680;26.324;2023-07-31T02:05:29;0.83;;;0.70;;
9739;SDS011;4909;42.680;26.324;2023-07-31T02:07:56;0.50;;;0.50;;
9739;SDS011;4909;42.680;26.324;2023-07-31T02:10:23;0.80;;;0.67;;
9739;SDS011;4909;42.680;26.324;2023-07-31T02:12:49;1.13;;;0.83;;
9739;SDS011;4909;42.680;26.324;2023-07-31T02:15:17;0.40;;;0.40;;
9739;SDS011;4909;42.680;26.324;2023-07-31T02:17:44;0.77;;;0.70;;
9739;SDS011;4909;42.680;26.324;2023-07-31T02:20:11;0.77;;;0.60;;
9739;SDS011;4909;42.680;26.324;2023-07-31T02:22:38;1.03;;;0.80;;
9739;SDS011;4909;42.680;26.324;2023-07-31T02:25:07;0.50;;;0.50;;
9739;SDS011;4909;42.680;26.324;2023-07-31T02:27:36;0.50;;;0.50;;
9739;SDS011;4909;42.680;26.324;2023-07-31T02:30:08;0.60;;;0.60;;
9739;SDS011;4909;42.680;26.324;2023-07-31T02:32:37;0.53;;;0.53;;
9739;SDS011;4909;42.680;26.324;2023-07-31T02:35:04;0.50;;;0.50;;
9739;SDS011;4909;42.680;26.324;2023-07-31T02:37:31;1.17;;;0.83;;
9739;SDS011;4909;42.680;26.324;2023-07-31T02:39:58;0.70;;;0.70;;
9739;SDS011;4909;42.680;26.324;2023-07-31T02:42:24;0.90;;;0.80;;
9739;SDS011;4909;42.680;26.324;2023-07-31T02:44:51;0.77;;;0.77;;
9739;SDS011;4909;42.680;26.324;2023-07-31T02:47:20;1.13;;;0.90;;
9739;SDS011;4909;42.680;26.324;2023-07-31T02:49:49;0.93;;;0.77;;
9739;SDS011;4909;42.680;26.324;2023-07-31T02:52:15;0.87;;;0.70;;
9739;SDS011;4909;42.680;26.324;2023-07-31T02:54:42;0.70;;;0.70;;
9739;SDS011;4909;42.680;26.324;2023-07-31T02:57:09;0.60;;;0.60;;
9739;SDS011;4909;42.680;26.324;2023-07-31T02:59:36;0.67;;;0.67;;
9739;SDS011;4909;42.680;26.324;2023-07-31T03:02:03;0.73;;;0.67;;
9739;SDS011;4909;42.680;26.324;2023-07-31T03:04:30;0.83;;;0.77;;
9739;SDS011;4909;42.680;26.324;2023-07-31T03:06:58;0.77;;;0.70;;
9739;SDS011;4909;42.680;26.324;2023-07-31T03:09:24;0.73;;;0.63;;
9739;SDS011;4909;42.680;26.324;2023-07-31T03:11:51;0.63;;;0.60;;
9739;SDS011;4909;42.680;26.324;2023-07-31T03:14:18;0.77;;;0.77;;
9739;SDS011;4909;42.680;26.324;2023-07-31T03:16:45;0.87;;;0.73;;
9739;SDS011;4909;42.680;26.324;2023-07-31T03:19:11;0.67;;;0.67;;
9739;SDS011;4909;42.680;26.324;2023-07-31T03:21:38;0.83;;;0.80;;
9739;SDS011;4909;42.680;26.324;2023-07-31T03:24:06;0.77;;;0.73;;
9739;SDS011;4909;42.680;26.324;2023-07-31T03:26:33;0.60;;;0.60;;
9739;SDS011;4909;42.680;26.324;2023-07-31T03:29:01;0.80;;;0.70;;
9739;SDS011;4909;42.680;26.324;2023-07-31T03:31:28;0.90;;;0.80;;
9739;SDS011;4909;42.680;26.324;2023-07-31T03:33:55;0.93;;;0.83;;
9739;SDS011;4909;42.680;26.324;2023-07-31T03:36:21;0.57;;;0.57;;
9739;SDS011;4909;42.680;26.324;2023-07-31T03:38:48;0.90;;;0.77;;
9739;SDS011;4909;42.680;26.324;2023-07-31T03:41:16;0.57;;;0.57;;
9739;SDS011;4909;42.680;26.324;2023-07-31T03:43:43;0.67;;;0.67;;
9739;SDS011;4909;42.680;26.324;2023-07-31T03:46:11;0.90;;;0.83;;
9739;SDS011;4909;42.680;26.324;2023-07-31T03:48:38;0.73;;;0.70;;
9739;SDS011;4909;42.680;26.324;2023-07-31T03:51:04;0.60;;;0.60;;
9739;SDS011;4909;42.680;26.324;2023-07-31T03:53:31;0.97;;;0.87;;
9739;SDS011;4909;42.680;26.324;2023-07-31T03:55:58;0.60;;;0.60;;
9739;SDS011;4909;42.680;26.324;2023-07-31T03:58:26;1.27;;;1.03;;
9739;SDS011;4909;42.680;26.324;2023-07-31T04:00:53;0.87;;;0.73;;
9739;SDS011;4909;42.680;26.324;2023-07-31T04:03:19;0.97;;;0.80;;
9739;SDS011;4909;42.680;26.324;2023-07-31T04:05:46;1.10;;;0.90;;
9739;SDS011;4909;42.680;26.324;2023-07-31T04:08:13;0.87;;;0.83;;
9739;SDS011;4909;42.680;26.324;2023-07-31T04:10:40;1.03;;;0.93;;
9739;SDS011;4909;42.680;26.324;2023-07-31T04:13:06;1.90;;;1.40;;
9739;SDS011;4909;42.680;26.324;2023-07-31T04:15:34;0.77;;;0.77;;
9739;SDS011;4909;42.680;26.324;2023-07-31T04:18:01;0.90;;;0.80;;
9739;SDS011;4909;42.680;26.324;2023-07-31T04:20:28;1.47;;;1.10;;
9739;SDS011;4909;42.680;26.324;2023-07-31T04:22:55;0.63;;;0.63;;
9739;SDS011;4909;42.680;26.324;2023-07-31T04:25:21;0.73;;;0.73;;
9739;SDS011;4909;42.680;26.324;2023-07-31T04:27:48;1.07;;;0.83;;
9739;SDS011;4909;42.680;26.324;2023-07-31T04:30:15;1.30;;;1.03;;
9739;SDS011;4909;42.680;26.324;2023-07-31T04:32:43;1.27;;;0.97;;
9739;SDS011;4909;42.680;26.324;2023-07-31T04:35:10;0.80;;;0.67;;
9739;SDS011;4909;42.680;26.324;2023-07-31T04:37:37;0.87;;;0.70;;
9739;SDS011;4909;42.680;26.324;2023-07-31T04:40:04;0.67;;;0.60;;
9739;SDS011;4909;42.680;26.324;2023-07-31T04:42:32;1.07;;;0.83;;
9739;SDS011;4909;42.680;26.324;2023-07-31T04:44:59;1.07;;;0.90;;
9739;SDS011;4909;42.680;26.324;2023-07-31T04:47:26;0.73;;;0.70;;
9739;SDS011;4909;42.680;26.324;2023-07-31T04:49:54;1.20;;;0.93;;
9739;SDS011;4909;42.680;26.324;2023-07-31T04:52:21;1.93;;;1.30;;
9739;SDS011;4909;42.680;26.324;2023-07-31T04:54:48;0.47;;;0.47;;
9739;SDS011;4909;42.680;26.324;2023-07-31T04:57:14;0.67;;;0.67;;
9739;SDS011;4909;42.680;26.324;2023-07-31T04:59:41;1.00;;;0.80;;
9739;SDS011;4909;42.680;26.324;2023-07-31T05:02:08;0.63;;;0.60;;
9739;SDS011;4909;42.680;26.324;2023-07-31T05:04:35;1.03;;;0.77;;
9739;SDS011;4909;42.680;26.324;2023-07-31T05:07:03;1.27;;;1.00;;
9739;SDS011;4909;42.680;26.324;2023-07-31T05:09:30;1.00;;;0.80;;
9739;SDS011;4909;42.680;26.324;2023-07-31T05:11:57;1.17;;;0.87;;
9739;SDS011;4909;42.680;26.324;2023-07-31T05:14:25;1.63;;;1.23;;
9739;SDS011;4909;42.680;26.324;2023-07-31T05:16:51;1.47;;;1.17;;
9739;SDS011;4909;42.680;26.324;2023-07-31T05:19:18;0.73;;;0.70;;
9739;SDS011;4909;42.680;26.324;2023-07-31T05:21:45;1.13;;;0.97;;
9739;SDS011;4909;42.680;26.324;2023-07-31T05:24:13;1.17;;;0.90;;
9739;SDS011;4909;42.680;26.324;2023-07-31T05:26:40;0.80;;;0.73;;
9739;SDS011;4909;42.680;26.324;2023-07-31T05:29:07;1.07;;;0.87;;
9739;SDS011;4909;42.680;26.324;2023-07-31T05:31:33;0.83;;;0.70;;
9739;SDS011;4909;42.680;26.324;2023-07-31T05:34:00;0.77;;;0.77;;
9739;SDS011;4909;42.680;26.324;2023-07-31T05:36:27;1.20;;;0.93;;
9739;SDS011;4909;42.680;26.324;2023-07-31T05:38:53;1.03;;;0.90;;
9739;SDS011;4909;42.680;26.324;2023-07-31T05:41:22;0.87;;;0.87;;
9739;SDS011;4909;42.680;26.324;2023-07-31T05:43:49;0.97;;;0.80;;
9739;SDS011;4909;42.680;26.324;2023-07-31T05:46:16;1.00;;;0.87;;
9739;SDS011;4909;42.680;26.324;2023-07-31T05:48:43;1.03;;;0.87;;
9739;SDS011;4909;42.680;26.324;2023-07-31T05:51:10;1.27;;;0.97;;
9739;SDS011;4909;42.680;26.324;2023-07-31T05:53:37;0.87;;;0.73;;
9739;SDS011;4909;42.680;26.324;2023-07-31T05:56:05;0.70;;;0.70;;
9739;SDS011;4909;42.680;26.324;2023-07-31T05:58:33;2.07;;;1.40;;
9739;SDS011;4909;42.680;26.324;2023-07-31T06:01:00;1.37;;;1.00;;
9739;SDS011;4909;42.680;26.324;2023-07-31T06:03:27;1.33;;;0.97;;
9739;SDS011;4909;42.680;26.324;2023-07-31T06:05:54;1.50;;;1.07;;
9739;SDS011;4909;42.680;26.324;2023-07-31T06:08:20;1.00;;;0.80;;
9739;SDS011;4909;42.680;26.324;2023-07-31T06:10:47;2.83;;;1.73;;
9739;SDS011;4909;42.680;26.324;2023-07-31T06:13:14;1.30;;;0.97;;
9739;SDS011;4909;42.680;26.324;2023-07-31T06:15:42;1.43;;;1.10;;
9739;SDS011;4909;42.680;26.324;2023-07-31T06:18:09;1.00;;;0.80;;
9739;SDS011;4909;42.680;26.324;2023-07-31T06:20:36;1.17;;;1.03;;
9739;SDS011;4909;42.680;26.324;2023-07-31T06:23:05;1.67;;;1.10;;
9739;SDS011;4909;42.680;26.324;2023-07-31T06:25:32;1.13;;;0.97;;
9739;SDS011;4909;42.680;26.324;2023-07-31T06:27:59;1.20;;;0.87;;
9739;SDS011;4909;42.680;26.324;2023-07-31T06:30:25;0.73;;;0.63;;
9739;SDS011;4909;42.680;26.324;2023-07-31T06:32:54;1.47;;;1.03;;
9739;SDS011;4909;42.680;26.324;2023-07-31T06:35:20;0.77;;;0.63;;
9739;SDS011;4909;42.680;26.324;2023-07-31T06:37:47;0.80;;;0.77;;
9739;SDS011;4909;42.680;26.324;2023-07-31T06:40:14;0.70;;;0.70;;
9739;SDS011;4909;42.680;26.324;2023-07-31T06:42:41;1.53;;;1.03;;
9739;SDS011;4909;42.680;26.324;2023-07-31T06:45:08;1.17;;;0.97;;
9739;SDS011;4909;42.680;26.324;2023-07-31T06:47:35;1.00;;;0.83;;
9739;SDS011;4909;42.680;26.324;2023-07-31T06:50:04;1.33;;;1.10;;
9739;SDS011;4909;42.680;26.324;2023-07-31T06:52:31;1.60;;;1.10;;
9739;SDS011;4909;42.680;26.324;2023-07-31T06:55:02;1.80;;;1.20;;
9739;SDS011;4909;42.680;26.324;2023-07-31T06:57:29;1.63;;;1.10;;
9739;SDS011;4909;42.680;26.324;2023-07-31T06:59:56;1.83;;;1.40;;
9739;SDS011;4909;42.680;26.324;2023-07-31T07:02:23;2.10;;;1.43;;
9739;SDS011;4909;42.680;26.324;2023-07-31T07:04:50;1.53;;;1.20;;
9739;SDS011;4909;42.680;26.324;2023-07-31T07:07:18;1.63;;;1.20;;
9739;SDS011;4909;42.680;26.324;2023-07-31T07:09:45;1.63;;;1.20;;
9739;SDS011;4909;42.680;26.324;2023-07-31T07:12:12;1.80;;;1.27;;
9739;SDS011;4909;42.680;26.324;2023-07-31T07:14:38;2.40;;;1.50;;
9739;SDS011;4909;42.680;26.324;2023-07-31T07:17:05;3.17;;;2.07;;
9739;SDS011;4909;42.680;26.324;2023-07-31T07:19:32;3.80;;;2.33;;
9739;SDS011;4909;42.680;26.324;2023-07-31T07:21:59;3.47;;;2.40;;
9739;SDS011;4909;42.680;26.324;2023-07-31T07:24:28;5.50;;;3.20;;
9739;SDS011;4909;42.680;26.324;2023-07-31T07:26:55;3.97;;;2.37;;
9739;SDS011;4909;42.680;26.324;2023-07-31T07:29:22;2.60;;;1.80;;
9739;SDS011;4909;42.680;26.324;2023-07-31T07:31:48;3.50;;;2.20;;
9739;SDS011;4909;42.680;26.324;2023-07-31T07:34:15;4.43;;;2.57;;
9739;SDS011;4909;42.680;26.324;2023-07-31T07:36:42;3.60;;;2.30;;
9739;SDS011;4909;42.680;26.324;2023-07-31T07:39:09;3.87;;;2.33;;
9739;SDS011;4909;42.680;26.324;2023-07-31T07:41:38;4.00;;;2.40;;
9739;SDS011;4909;42.680;26.324;2023-07-31T07:44:05;2.57;;;1.90;;
9739;SDS011;4909;42.680;26.324;2023-07-31T07:46:32;3.40;;;2.40;;
9739;SDS011;4909;42.680;26.324;2023-07-31T07:48:58;3.17;;;2.23;;
9739;SDS011;4909;42.680;26.324;2023-07-31T07:51:25;2.77;;;2.07;;
9739;SDS011;4909;42.680;26.324;2023-07-31T07:53:52;3.40;;;2.30;;
9739;SDS011;4909;42.680;26.324;2023-07-31T07:56:19;3.73;;;2.63;;
9739;SDS011;4909;42.680;26.324;2023-07-31T07:58:49;3.83;;;2.43;;
9739;SDS011;4909;42.680;26.324;2023-07-31T08:01:16;3.87;;;2.60;;
9739;SDS011;4909;42.680;26.324;2023-07-31T08:03:43;3.70;;;2.53;;
9739;SDS011;4909;42.680;26.324;2023-07-31T08:06:09;3.13;;;2.20;;
9739;SDS011;4909;42.680;26.324;2023-07-31T08:08:36;3.40;;;2.33;;
9739;SDS011;4909;42.680;26.324;2023-07-31T08:11:04;3.30;;;2.23;;
9739;SDS011;4909;42.680;26.324;2023-07-31T08:13:31;3.63;;;2.57;;
9739;SDS011;4909;42.680;26.324;2023-07-31T08:15:59;3.23;;;2.23;;
9739;SDS011;4909;42.680;26.324;2023-07-31T08:18:26;2.90;;;2.03;;
9739;SDS011;4909;42.680;26.324;2023-07-31T08:20:52;3.63;;;2.63;;
9739;SDS011;4909;42.680;26.324;2023-07-31T08:23:19;3.77;;;2.57;;
9739;SDS011;4909;42.680;26.324;2023-07-31T08:25:46;3.23;;;2.37;;
9739;SDS011;4909;42.680;26.324;2023-07-31T08:28:15;3.20;;;2.33;;
9739;SDS011;4909;42.680;26.324;2023-07-31T08:30:42;3.40;;;2.40;;
9739;SDS011;4909;42.680;26.324;2023-07-31T08:33:10;3.57;;;2.50;;
9739;SDS011;4909;42.680;26.324;2023-07-31T08:35:37;3.63;;;2.60;;
9739;SDS011;4909;42.680;26.324;2023-07-31T08:38:03;3.20;;;2.20;;
9739;SDS011;4909;42.680;26.324;2023-07-31T08:40:30;3.00;;;2.23;;
9739;SDS011;4909;42.680;26.324;2023-07-31T08:42:57;3.23;;;2.40;;
9739;SDS011;4909;42.680;26.324;2023-07-31T08:45:27;2.77;;;2.07;;
9739;SDS011;4909;42.680;26.324;2023-07-31T08:47:54;2.93;;;2.23;;
9739;SDS011;4909;42.680;26.324;2023-07-31T08:50:23;3.00;;;2.37;;
9739;SDS011;4909;42.680;26.324;2023-07-31T08:52:50;3.67;;;2.87;;
9739;SDS011;4909;42.680;26.324;2023-07-31T08:55:18;2.63;;;2.00;;
9739;SDS011;4909;42.680;26.324;2023-07-31T08:57:48;3.33;;;2.23;;
9739;SDS011;4909;42.680;26.324;2023-07-31T09:00:17;3.63;;;2.57;;
9739;SDS011;4909;42.680;26.324;2023-07-31T09:02:46;4.03;;;2.80;;
9739;SDS011;4909;42.680;26.324;2023-07-31T09:05:18;3.60;;;2.73;;
9739;SDS011;4909;42.680;26.324;2023-07-31T09:07:47;3.27;;;2.33;;
9739;SDS011;4909;42.680;26.324;2023-07-31T09:10:16;3.17;;;2.13;;
9739;SDS011;4909;42.680;26.324;2023-07-31T09:12:43;3.43;;;2.33;;
9739;SDS011;4909;42.680;26.324;2023-07-31T09:15:11;3.80;;;2.47;;
9739;SDS011;4909;42.680;26.324;2023-07-31T09:17:38;2.67;;;1.90;;
9739;SDS011;4909;42.680;26.324;2023-07-31T09:20:14;3.47;;;2.47;;
9739;SDS011;4909;42.680;26.324;2023-07-31T09:22:42;3.13;;;2.23;;
9739;SDS011;4909;42.680;26.324;2023-07-31T09:25:18;3.77;;;2.57;;
9739;SDS011;4909;42.680;26.324;2023-07-31T09:27:47;4.00;;;2.50;;
9739;SDS011;4909;42.680;26.324;2023-07-31T09:30:16;4.10;;;2.73;;
9739;SDS011;4909;42.680;26.324;2023-07-31T09:32:44;3.43;;;2.37;;
9739;SDS011;4909;42.680;26.324;2023-07-31T09:35:18;3.23;;;2.10;;
9739;SDS011;4909;42.680;26.324;2023-07-31T09:37:50;3.13;;;2.10;;
9739;SDS011;4909;42.680;26.324;2023-07-31T09:40:28;3.80;;;2.40;;
9739;SDS011;4909;42.680;26.324;2023-07-31T09:42:56;3.77;;;2.33;;
9739;SDS011;4909;42.680;26.324;2023-07-31T09:45:24;4.20;;;2.70;;
9739;SDS011;4909;42.680;26.324;2023-07-31T09:47:51;3.73;;;2.40;;
9739;SDS011;4909;42.680;26.324;2023-07-31T09:50:19;3.63;;;2.33;;
9739;SDS011;4909;42.680;26.324;2023-07-31T09:52:47;4.33;;;2.80;;
9739;SDS011;4909;42.680;26.324;2023-07-31T09:55:14;3.83;;;2.40;;
9739;SDS011;4909;42.680;26.324;2023-07-31T09:57:44;3.80;;;2.37;;
9739;SDS011;4909;42.680;26.324;2023-07-31T10:00:13;4.13;;;2.63;;
9739;SDS011;4909;42.680;26.324;2023-07-31T10:02:41;3.90;;;2.53;;
9739;SDS011;4909;42.680;26.324;2023-07-31T10:05:12;3.13;;;2.17;;
9739;SDS011;4909;42.680;26.324;2023-07-31T10:07:41;3.53;;;2.43;;
9739;SDS011;4909;42.680;26.324;2023-07-31T10:10:10;3.93;;;2.53;;
9739;SDS011;4909;42.680;26.324;2023-07-31T10:12:39;2.53;;;1.90;;
9739;SDS011;4909;42.680;26.324;2023-07-31T10:15:08;3.30;;;2.17;;
9739;SDS011;4909;42.680;26.324;2023-07-31T10:17:36;3.07;;;1.97;;
9739;SDS011;4909;42.680;26.324;2023-07-31T10:20:03;3.57;;;2.33;;
9739;SDS011;4909;42.680;26.324;2023-07-31T10:22:32;2.77;;;2.10;;
9739;SDS011;4909;42.680;26.324;2023-07-31T10:25:00;2.27;;;1.83;;
9739;SDS011;4909;42.680;26.324;2023-07-31T10:27:27;2.70;;;2.13;;
9739;SDS011;4909;42.680;26.324;2023-07-31T10:29:55;2.93;;;2.07;;
9739;SDS011;4909;42.680;26.324;2023-07-31T10:32:25;2.50;;;1.93;;
9739;SDS011;4909;42.680;26.324;2023-07-31T10:34:52;4.03;;;2.63;;
9739;SDS011;4909;42.680;26.324;2023-07-31T10:37:21;4.10;;;2.73;;
9739;SDS011;4909;42.680;26.324;2023-07-31T10:39:59;3.17;;;2.20;;
9739;SDS011;4909;42.680;26.324;2023-07-31T10:42:27;3.50;;;2.40;;
9739;SDS011;4909;42.680;26.324;2023-07-31T10:44:59;3.47;;;2.43;;
9739;SDS011;4909;42.680;26.324;2023-07-31T10:47:28;3.40;;;2.33;;
9739;SDS011;4909;42.680;26.324;2023-07-31T10:50:11;3.80;;;2.37;;
9739;SDS011;4909;42.680;26.324;2023-07-31T10:52:44;4.50;;;2.60;;
9739;SDS011;4909;42.680;26.324;2023-07-31T10:55:14;3.00;;;2.30;;
9739;SDS011;4909;42.680;26.324;2023-07-31T10:57:44;3.13;;;2.30;;
9739;SDS011;4909;42.680;26.324;2023-07-31T11:00:18;4.17;;;2.53;;
9739;SDS011;4909;42.680;26.324;2023-07-31T11:02:57;2.97;;;2.17;;
9739;SDS011;4909;42.680;26.324;2023-07-31T11:05:41;2.20;;;1.60;;
9739;SDS011;4909;42.680;26.324;2023-07-31T11:08:12;2.73;;;1.83;;
9739;SDS011;4909;42.680;26.324;2023-07-31T11:10:44;2.47;;;1.70;;
9739;SDS011;4909;42.680;26.324;2023-07-31T11:13:12;3.00;;;1.77;;
9739;SDS011;4909;42.680;26.324;2023-07-31T11:15:38;4.27;;;2.43;;
9739;SDS011;4909;42.680;26.324;2023-07-31T11:18:07;2.27;;;1.43;;
9739;SDS011;4909;42.680;26.324;2023-07-31T11:20:36;4.03;;;2.40;;
9739;SDS011;4909;42.680;26.324;2023-07-31T11:23:04;4.90;;;2.53;;
9739;SDS011;4909;42.680;26.324;2023-07-31T11:25:33;5.77;;;3.03;;
9739;SDS011;4909;42.680;26.324;2023-07-31T11:28:04;4.33;;;2.27;;
9739;SDS011;4909;42.680;26.324;2023-07-31T11:30:32;4.70;;;2.60;;
9739;SDS011;4909;42.680;26.324;2023-07-31T11:33:00;4.23;;;2.17;;
9739;SDS011;4909;42.680;26.324;2023-07-31T11:35:31;3.57;;;2.13;;
9739;SDS011;4909;42.680;26.324;2023-07-31T11:37:59;5.77;;;2.87;;
9739;SDS011;4909;42.680;26.324;2023-07-31T11:40:26;4.00;;;2.23;;
9739;SDS011;4909;42.680;26.324;2023-07-31T11:42:55;4.67;;;2.63;;
9739;SDS011;4909;42.680;26.324;2023-07-31T11:45:24;2.80;;;1.67;;
9739;SDS011;4909;42.680;26.324;2023-07-31T11:47:53;3.50;;;1.87;;
9739;SDS011;4909;42.680;26.324;2023-07-31T11:50:21;5.00;;;2.53;;
9739;SDS011;4909;42.680;26.324;2023-07-31T11:52:51;4.10;;;2.10;;
9739;SDS011;4909;42.680;26.324;2023-07-31T11:55:21;3.93;;;2.17;;
9739;SDS011;4909;42.680;26.324;2023-07-31T11:57:48;3.40;;;1.93;;
9739;SDS011;4909;42.680;26.324;2023-07-31T12:00:16;4.50;;;2.50;;
9739;SDS011;4909;42.680;26.324;2023-07-31T12:02:43;4.07;;;2.10;;
9739;SDS011;4909;42.680;26.324;2023-07-31T12:05:11;5.03;;;2.63;;
9739;SDS011;4909;42.680;26.324;2023-07-31T12:07:45;4.43;;;2.47;;
9739;SDS011;4909;42.680;26.324;2023-07-31T12:10:23;3.33;;;1.80;;
9739;SDS011;4909;42.680;26.324;2023-07-31T12:13:01;4.50;;;2.47;;
9739;SDS011;4909;42.680;26.324;2023-07-31T12:15:30;4.57;;;2.43;;
9739;SDS011;4909;42.680;26.324;2023-07-31T12:17:58;5.73;;;3.03;;
9739;SDS011;4909;42.680;26.324;2023-07-31T12:20:25;4.30;;;2.33;;
9739;SDS011;4909;42.680;26.324;2023-07-31T12:22:52;4.27;;;2.27;;
9739;SDS011;4909;42.680;26.324;2023-07-31T12:25:24;3.23;;;1.97;;
9739;SDS011;4909;42.680;26.324;2023-07-31T12:27:55;3.20;;;1.83;;
9739;SDS011;4909;42.680;26.324;2023-07-31T12:30:28;3.07;;;1.80;;
9739;SDS011;4909;42.680;26.324;2023-07-31T12:32:55;4.83;;;2.63;;
9739;SDS011;4909;42.680;26.324;2023-07-31T12:35:22;4.00;;;2.13;;
9739;SDS011;4909;42.680;26.324;2023-07-31T12:37:49;3.30;;;1.90;;
9739;SDS011;4909;42.680;26.324;2023-07-31T12:40:16;4.53;;;2.33;;
9739;SDS011;4909;42.680;26.324;2023-07-31T12:42:44;4.40;;;2.30;;
9739;SDS011;4909;42.680;26.324;2023-07-31T12:45:11;3.73;;;2.13;;
9739;SDS011;4909;42.680;26.324;2023-07-31T12:47:38;4.13;;;2.20;;
9739;SDS011;4909;42.680;26.324;2023-07-31T12:50:05;4.20;;;2.43;;
9739;SDS011;4909;42.680;26.324;2023-07-31T12:52:33;3.70;;;2.03;;
9739;SDS011;4909;42.680;26.324;2023-07-31T12:55:00;3.23;;;1.80;;
9739;SDS011;4909;42.680;26.324;2023-07-31T12:57:26;4.87;;;2.47;;
9739;SDS011;4909;42.680;26.324;2023-07-31T12:59:54;4.00;;;2.10;;
9739;SDS011;4909;42.680;26.324;2023-07-31T13:02:21;5.07;;;2.77;;
9739;SDS011;4909;42.680;26.324;2023-07-31T13:04:49;4.17;;;2.23;;
9739;SDS011;4909;42.680;26.324;2023-07-31T13:07:16;3.57;;;1.87;;
9739;SDS011;4909;42.680;26.324;2023-07-31T13:09:43;4.20;;;2.20;;
9739;SDS011;4909;42.680;26.324;2023-07-31T13:12:10;4.97;;;2.50;;
9739;SDS011;4909;42.680;26.324;2023-07-31T13:14:37;4.60;;;2.23;;
9739;SDS011;4909;42.680;26.324;2023-07-31T13:17:05;3.93;;;2.13;;
9739;SDS011;4909;42.680;26.324;2023-07-31T13:19:31;3.83;;;1.93;;
9739;SDS011;4909;42.680;26.324;2023-07-31T13:21:58;5.33;;;2.70;;
9739;SDS011;4909;42.680;26.324;2023-07-31T13:24:25;2.63;;;1.43;;
9739;SDS011;4909;42.680;26.324;2023-07-31T13:26:52;4.27;;;2.20;;
9739;SDS011;4909;42.680;26.324;2023-07-31T13:29:18;4.77;;;2.43;;
9739;SDS011;4909;42.680;26.324;2023-07-31T13:31:46;4.97;;;2.40;;
9739;SDS011;4909;42.680;26.324;2023-07-31T13:34:15;4.73;;;2.47;;
9739;SDS011;4909;42.680;26.324;2023-07-31T13:36:42;3.97;;;2.10;;
9739;SDS011;4909;42.680;26.324;2023-07-31T13:39:08;4.43;;;2.30;;
9739;SDS011;4909;42.680;26.324;2023-07-31T13:41:35;5.47;;;2.70;;
9739;SDS011;4909;42.680;26.324;2023-07-31T13:44:02;4.43;;;2.13;;
9739;SDS011;4909;42.680;26.324;2023-07-31T13:46:29;5.00;;;2.63;;
9739;SDS011;4909;42.680;26.324;2023-07-31T13:48:57;4.27;;;2.30;;
9739;SDS011;4909;42.680;26.324;2023-07-31T13:51:26;5.17;;;2.50;;
9739;SDS011;4909;42.680;26.324;2023-07-31T13:53:56;4.70;;;2.43;;
9739;SDS011;4909;42.680;26.324;2023-07-31T13:56:23;4.90;;;2.37;;
9739;SDS011;4909;42.680;26.324;2023-07-31T13:58:50;4.63;;;2.33;;
9739;SDS011;4909;42.680;26.324;2023-07-31T14:01:17;5.00;;;2.70;;
9739;SDS011;4909;42.680;26.324;2023-07-31T14:03:43;4.67;;;2.50;;
9739;SDS011;4909;42.680;26.324;2023-07-31T14:06:10;5.50;;;2.97;;
9739;SDS011;4909;42.680;26.324;2023-07-31T14:08:38;5.53;;;2.97;;
9739;SDS011;4909;42.680;26.324;2023-07-31T14:11:05;3.87;;;2.10;;
9739;SDS011;4909;42.680;26.324;2023-07-31T14:13:32;4.30;;;2.33;;
9739;SDS011;4909;42.680;26.324;2023-07-31T14:15:59;4.43;;;2.40;;
9739;SDS011;4909;42.680;26.324;2023-07-31T14:18:25;3.50;;;1.90;;
9739;SDS011;4909;42.680;26.324;2023-07-31T14:20:52;4.90;;;2.53;;
9739;SDS011;4909;42.680;26.324;2023-07-31T14:23:19;5.77;;;2.90;;
9739;SDS011;4909;42.680;26.324;2023-07-31T14:25:47;4.83;;;2.53;;
9739;SDS011;4909;42.680;26.324;2023-07-31T14:28:14;5.03;;;2.70;;
9739;SDS011;4909;42.680;26.324;2023-07-31T14:30:41;5.30;;;2.70;;
9739;SDS011;4909;42.680;26.324;2023-07-31T14:33:07;5.20;;;2.80;;
9739;SDS011;4909;42.680;26.324;2023-07-31T14:35:34;3.40;;;1.83;;
9739;SDS011;4909;42.680;26.324;2023-07-31T14:38:01;5.07;;;2.50;;
9739;SDS011;4909;42.680;26.324;2023-07-31T14:40:28;3.13;;;1.80;;
9739;SDS011;4909;42.680;26.324;2023-07-31T14:42:56;3.80;;;2.07;;
9739;SDS011;4909;42.680;26.324;2023-07-31T14:45:23;5.53;;;2.77;;
9739;SDS011;4909;42.680;26.324;2023-07-31T14:47:50;3.57;;;1.93;;
9739;SDS011;4909;42.680;26.324;2023-07-31T14:50:17;3.53;;;2.00;;
9739;SDS011;4909;42.680;26.324;2023-07-31T14:52:46;3.20;;;1.87;;
9739;SDS011;4909;42.680;26.324;2023-07-31T14:55:13;4.30;;;2.33;;
9739;SDS011;4909;42.680;26.324;2023-07-31T14:57:40;4.77;;;2.43;;
9739;SDS011;4909;42.680;26.324;2023-07-31T15:00:08;4.80;;;2.53;;
9739;SDS011;4909;42.680;26.324;2023-07-31T15:02:36;3.90;;;2.17;;
9739;SDS011;4909;42.680;26.324;2023-07-31T15:05:03;3.57;;;2.07;;